createdAt,value
2023-01-23T00:00:08.243Z,100643.19
2023-01-23T00:00:48.019Z,100647.56
2023-01-23T00:01:25.411Z,100647.84
2023-01-23T00:01:57.321Z,100645.94
2023-01-23T00:02:29.210Z,100647.84
2023-01-23T00:03:01.227Z,100649.34
2023-01-23T00:03:34.242Z,100653.81
2023-01-23T00:04:06.316Z,100651.38
2023-01-23T00:04:38.261Z,100653.03
2023-01-23T00:05:10.499Z,100647.56
2023-01-23T00:05:42.432Z,100645.22
2023-01-23T00:06:16.545Z,100641.78
2023-01-23T00:06:50.695Z,100642.69
2023-01-23T00:07:22.621Z,100640.78
2023-01-23T00:07:54.635Z,100639.66
2023-01-23T00:08:27.272Z,100641.25
2023-01-23T00:08:59.243Z,100640.13
2023-01-23T00:09:31.758Z,100635.41
2023-01-23T00:10:04.168Z,100633.09
2023-01-23T00:10:38.155Z,100631.62
2023-01-23T00:11:14.026Z,100636.25
2023-01-23T00:11:45.899Z,100629.59
2023-01-23T00:12:18.054Z,100632.75
2023-01-23T00:12:50.011Z,100628.69
2023-01-23T00:13:22.033Z,100625.28
2023-01-23T00:13:54.135Z,100627.31
2023-01-23T00:14:26.026Z,100620.53
2023-01-23T00:14:57.938Z,100622.00
2023-01-23T00:15:29.879Z,100621.62
2023-01-23T00:16:09.965Z,100618.66
2023-01-23T00:16:41.900Z,100617.44
2023-01-23T00:17:13.749Z,100620.59
2023-01-23T00:17:45.926Z,100619.75
2023-01-23T00:18:18.176Z,100611.84
2023-01-23T00:18:50.965Z,100617.00
2023-01-23T00:19:22.852Z,100612.09
2023-01-23T00:19:55.423Z,100609.63
2023-01-23T00:20:27.320Z,100613.47
2023-01-23T00:20:59.232Z,100616.22
2023-01-23T00:21:31.830Z,100607.25
2023-01-23T00:22:03.756Z,100615.09
2023-01-23T00:22:36.308Z,100608.31
2023-01-23T00:23:09.125Z,100612.22
2023-01-23T00:23:46.548Z,100614.00
2023-01-23T00:24:18.424Z,100617.00
2023-01-23T00:24:50.337Z,100617.28
2023-01-23T00:25:22.312Z,100620.84
2023-01-23T00:25:54.235Z,100615.09
2023-01-23T00:26:28.895Z,100613.56
2023-01-23T00:27:00.806Z,100615.31
2023-01-23T00:27:33.149Z,100617.44
2023-01-23T00:28:05.631Z,100619.22
2023-01-23T00:28:38.095Z,100617.41
2023-01-23T00:29:10.059Z,100617.69
2023-01-23T00:29:41.930Z,100613.50
2023-01-23T00:30:13.895Z,100614.94
2023-01-23T00:30:45.905Z,100616.16
2023-01-23T00:31:21.273Z,100618.81
2023-01-23T00:31:54.308Z,100610.03
2023-01-23T00:32:28.198Z,100619.81
2023-01-23T00:33:00.288Z,100617.28
2023-01-23T00:33:32.445Z,100612.19
2023-01-23T00:34:08.480Z,100613.69
2023-01-23T00:34:40.391Z,100615.84
2023-01-23T00:35:12.550Z,100611.72
2023-01-23T00:35:44.467Z,100610.72
2023-01-23T00:36:16.382Z,100617.25
2023-01-23T00:36:48.295Z,100621.81
2023-01-23T00:37:20.216Z,100616.75
2023-01-23T00:37:52.143Z,100611.03
2023-01-23T00:38:24.329Z,100619.47
2023-01-23T00:38:56.553Z,100606.75
2023-01-23T00:39:28.928Z,100601.66
2023-01-23T00:40:00.809Z,100612.81
2023-01-23T00:40:34.081Z,100617.91
2023-01-23T00:41:06.263Z,100606.44
2023-01-23T00:41:38.134Z,100605.03
2023-01-23T00:42:10.024Z,100605.03
2023-01-23T00:42:41.936Z,100604.94
2023-01-23T00:43:13.802Z,100606.47
2023-01-23T00:43:46.960Z,100610.81
2023-01-23T00:44:18.963Z,100607.78
2023-01-23T00:44:51.318Z,100611.19
2023-01-23T00:45:23.208Z,100614.75
2023-01-23T00:45:55.224Z,100613.63
2023-01-23T00:46:27.245Z,100613.19
2023-01-23T00:46:59.199Z,100612.06
2023-01-23T00:47:31.301Z,100607.38
2023-01-23T00:48:03.240Z,100618.25
2023-01-23T00:48:35.142Z,100619.25
2023-01-23T00:49:07.516Z,100613.59
2023-01-23T00:49:39.417Z,100622.16
2023-01-23T00:50:11.818Z,100625.09
2023-01-23T00:50:43.691Z,100621.38
2023-01-23T00:51:16.031Z,100624.50
2023-01-23T00:51:48.303Z,100624.16
2023-01-23T00:52:20.706Z,100626.31
2023-01-23T00:52:52.758Z,100623.41
2023-01-23T00:53:25.001Z,100621.62
2023-01-23T00:53:57.018Z,100624.41
2023-01-23T00:54:28.874Z,100615.78
2023-01-23T00:55:00.844Z,100625.56
2023-01-23T00:55:33.277Z,100619.84
2023-01-23T00:56:05.827Z,100621.81
2023-01-23T00:56:37.859Z,100623.72
2023-01-23T00:57:09.809Z,100624.41
2023-01-23T00:57:41.693Z,100632.00
2023-01-23T00:58:13.781Z,100625.66
2023-01-23T00:58:45.669Z,100628.09
2023-01-23T00:59:17.810Z,100625.34
2023-01-23T00:59:49.781Z,100631.03
2023-01-23T01:00:22.053Z,100629.75
2023-01-23T01:00:54.425Z,100634.28
2023-01-23T01:01:27.899Z,100627.47
2023-01-23T01:02:00.321Z,100624.88
2023-01-23T01:02:32.264Z,100625.88
2023-01-23T01:03:04.838Z,100624.53
2023-01-23T01:03:36.904Z,100628.09
2023-01-23T01:04:08.983Z,100624.84
2023-01-23T01:04:41.569Z,100626.25
2023-01-23T01:05:13.777Z,100621.91
2023-01-23T01:05:45.714Z,100624.00
2023-01-23T01:06:18.561Z,100632.97
2023-01-23T01:06:50.424Z,100627.16
2023-01-23T01:07:22.813Z,100630.72
2023-01-23T01:07:54.823Z,100627.16
2023-01-23T01:08:26.737Z,100622.78
2023-01-23T01:08:59.762Z,100624.44
2023-01-23T01:09:31.649Z,100626.56
2023-01-23T01:10:04.116Z,100627.69
2023-01-23T01:10:36.061Z,100620.37
2023-01-23T01:11:10.466Z,100618.09
2023-01-23T01:11:42.885Z,100614.53
2023-01-23T01:12:14.887Z,100612.94
2023-01-23T01:12:47.117Z,100611.97
2023-01-23T01:13:21.488Z,100622.31
2023-01-23T01:13:54.917Z,100624.59
2023-01-23T01:14:26.894Z,100623.47
2023-01-23T01:14:58.815Z,100619.75
2023-01-23T01:15:30.956Z,100623.19
2023-01-23T01:16:03.126Z,100621.72
2023-01-23T01:16:35.199Z,100629.19
2023-01-23T01:17:07.569Z,100623.19
2023-01-23T01:17:39.816Z,100623.66
2023-01-23T01:18:11.762Z,100628.84
2023-01-23T01:18:44.613Z,100620.75
2023-01-23T01:19:18.340Z,100620.09
2023-01-23T01:19:50.270Z,100616.37
2023-01-23T01:20:23.904Z,100626.94
2023-01-23T01:20:56.245Z,100623.69
2023-01-23T01:21:28.188Z,100620.09
2023-01-23T01:22:00.124Z,100615.75
2023-01-23T01:22:33.069Z,100632.44
2023-01-23T01:23:06.188Z,100611.53
2023-01-23T01:23:38.976Z,100616.56
2023-01-23T01:24:10.932Z,100620.63
2023-01-23T01:24:42.949Z,100616.25
2023-01-23T01:25:15.790Z,100613.50
2023-01-23T01:25:47.648Z,100618.69
2023-01-23T01:26:19.661Z,100609.09
2023-01-23T01:26:51.659Z,100605.88
2023-01-23T01:27:24.618Z,100615.44
2023-01-23T01:27:56.792Z,100614.97
2023-01-23T01:28:33.192Z,100600.38
2023-01-23T01:29:05.086Z,100603.94
2023-01-23T01:29:36.949Z,100595.38
2023-01-23T01:30:10.154Z,100599.44
2023-01-23T01:30:42.104Z,100593.59
2023-01-23T01:31:15.848Z,100596.84
2023-01-23T01:31:47.958Z,100589.56
2023-01-23T01:32:19.957Z,100594.28
2023-01-23T01:32:54.685Z,100592.69
2023-01-23T01:33:28.352Z,100587.00
2023-01-23T01:34:01.395Z,100594.78
2023-01-23T01:34:33.354Z,100592.00
2023-01-23T01:35:07.084Z,100592.00
2023-01-23T01:35:41.316Z,100590.69
2023-01-23T01:36:15.638Z,100592.66
2023-01-23T01:36:47.533Z,100590.41
2023-01-23T01:37:22.547Z,100589.56
2023-01-23T01:37:54.393Z,100586.00
2023-01-23T01:38:26.736Z,100587.41
2023-01-23T01:38:58.645Z,100585.81
2023-01-23T01:39:30.546Z,100583.69
2023-01-23T01:40:03.270Z,100587.13
2023-01-23T01:40:36.182Z,100581.97
2023-01-23T01:41:09.348Z,100581.62
2023-01-23T01:41:41.282Z,100590.06
2023-01-23T01:42:13.187Z,100579.03
2023-01-23T01:42:49.641Z,100585.34
2023-01-23T01:43:24.313Z,100589.06
2023-01-23T01:43:57.466Z,100583.56
2023-01-23T01:44:59.874Z,100588.28
2023-01-23T01:46:05.975Z,100591.34
2023-01-23T01:46:38.214Z,100592.34
2023-01-23T01:47:15.884Z,100591.22
2023-01-23T01:47:47.818Z,100593.81
2023-01-23T01:48:23.247Z,100591.34
2023-01-23T01:49:19.826Z,100587.34
2023-01-23T01:50:02.315Z,100594.75
2023-01-23T01:50:35.361Z,100589.06
2023-01-23T01:51:33.659Z,100591.03
2023-01-23T01:52:08.839Z,100591.84
2023-01-23T01:52:40.713Z,100585.03
2023-01-23T01:53:13.129Z,100588.94
2023-01-23T01:53:48.436Z,100595.94
2023-01-23T01:54:23.995Z,100589.75
2023-01-23T01:55:04.753Z,100592.34
2023-01-23T01:55:37.817Z,100592.19
2023-01-23T01:56:12.952Z,100595.06
2023-01-23T01:56:50.764Z,100591.69
2023-01-23T01:57:26.996Z,100598.00
2023-01-23T01:57:59.033Z,100586.81
2023-01-23T01:58:31.629Z,100587.00
2023-01-23T01:59:03.978Z,100597.06
2023-01-23T01:59:45.205Z,100607.25
2023-01-23T02:00:19.544Z,100600.75
2023-01-23T02:00:52.164Z,100606.25
2023-01-23T02:01:24.235Z,100604.44
2023-01-23T02:02:05.236Z,100601.22
2023-01-23T02:03:01.412Z,100605.28
2023-01-23T02:03:33.935Z,100601.50
2023-01-23T02:04:06.911Z,100599.78
2023-01-23T02:04:46.983Z,100598.81
2023-01-23T02:05:29.133Z,100604.97
2023-01-23T02:06:01.945Z,100596.72
2023-01-23T02:06:33.918Z,100600.13
2023-01-23T02:07:10.603Z,100594.94
2023-01-23T02:07:57.339Z,100598.16
2023-01-23T02:08:39.129Z,100605.28
2023-01-23T02:09:21.675Z,100597.50
2023-01-23T02:09:54.910Z,100596.72
2023-01-23T02:10:26.946Z,100601.09
2023-01-23T02:11:02.132Z,100602.38
2023-01-23T02:11:33.988Z,100600.59
2023-01-23T02:12:06.139Z,100603.31
2023-01-23T02:12:38.772Z,100602.03
2023-01-23T02:13:39.734Z,100605.28
2023-01-23T02:14:12.539Z,100601.06
2023-01-23T02:14:44.682Z,100600.75
2023-01-23T02:15:18.001Z,100593.28
2023-01-23T02:15:51.211Z,100603.50
2023-01-23T02:16:31.389Z,100602.84
2023-01-23T02:17:03.710Z,100595.88
2023-01-23T02:17:38.233Z,100597.00
2023-01-23T02:18:10.131Z,100595.56
2023-01-23T02:18:47.688Z,100592.31
2023-01-23T02:19:36.135Z,100597.16
2023-01-23T02:20:23.417Z,100595.88
2023-01-23T02:20:57.806Z,100582.75
2023-01-23T02:21:30.415Z,100593.31
2023-01-23T02:22:37.489Z,100593.00
2023-01-23T02:23:10.782Z,100587.94
2023-01-23T02:24:00.471Z,100587.47
2023-01-23T02:24:39.241Z,100592.00
2023-01-23T02:25:37.016Z,100585.22
2023-01-23T02:26:16.393Z,100586.66
2023-01-23T02:26:48.651Z,100579.69
2023-01-23T02:27:20.649Z,100583.25
2023-01-23T02:27:52.894Z,100580.66
2023-01-23T02:28:40.469Z,100572.87
2023-01-23T02:29:14.573Z,100576.25
2023-01-23T02:29:48.418Z,100578.22
2023-01-23T02:30:21.467Z,100573.53
2023-01-23T02:30:54.422Z,100578.69
2023-01-23T02:31:28.556Z,100575.13
2023-01-23T02:32:00.976Z,100580.97
2023-01-23T02:32:35.825Z,100574.97
2023-01-23T02:33:31.723Z,100576.75
2023-01-23T02:34:05.371Z,100583.69
2023-01-23T02:34:38.843Z,100576.69
2023-01-23T02:35:20.190Z,100576.69
2023-01-23T02:35:53.284Z,100571.50
2023-01-23T02:36:29.541Z,100573.63
2023-01-23T02:37:02.399Z,100574.78
2023-01-23T02:37:36.622Z,100576.41
2023-01-23T02:38:09.446Z,100574.44
2023-01-23T02:38:54.735Z,100568.97
2023-01-23T02:39:27.618Z,100569.59
2023-01-23T02:40:03.456Z,100574.78
2023-01-23T02:40:39.625Z,100575.78
2023-01-23T02:41:15.475Z,100573.31
2023-01-23T02:41:50.105Z,100563.63
2023-01-23T02:42:25.085Z,100568.66
2023-01-23T02:42:58.741Z,100565.28
2023-01-23T02:43:38.349Z,100562.50
2023-01-23T02:44:33.686Z,100568.16
2023-01-23T02:45:06.246Z,100563.16
2023-01-23T02:45:38.955Z,100562.81
2023-01-23T02:46:11.974Z,100559.91
2023-01-23T02:46:44.041Z,100573.72
2023-01-23T02:47:15.937Z,100563.63
2023-01-23T02:47:48.185Z,100558.97
2023-01-23T02:48:21.674Z,100566.41
2023-01-23T02:48:54.189Z,100566.06
2023-01-23T02:49:26.188Z,100563.47
2023-01-23T02:49:58.058Z,100566.72
2023-01-23T02:50:29.999Z,100565.59
2023-01-23T02:51:01.979Z,100565.75
2023-01-23T02:51:34.145Z,100567.88
2023-01-23T02:52:06.636Z,100556.69
2023-01-23T02:52:39.774Z,100558.97
2023-01-23T02:53:12.697Z,100560.44
2023-01-23T02:53:45.226Z,100557.34
2023-01-23T02:54:17.389Z,100552.19
2023-01-23T02:54:49.270Z,100556.38
2023-01-23T02:55:22.222Z,100556.38
2023-01-23T02:55:56.547Z,100562.69
2023-01-23T02:56:28.717Z,100559.94
2023-01-23T02:57:00.610Z,100557.97
2023-01-23T02:57:34.927Z,100565.13
2023-01-23T02:58:25.548Z,100558.97
2023-01-23T02:59:16.743Z,100558.81
2023-01-23T03:00:07.339Z,100557.19
2023-01-23T03:00:39.629Z,100561.06
2023-01-23T03:01:11.840Z,100553.59
2023-01-23T03:01:43.966Z,100562.22
2023-01-23T03:02:16.009Z,100556.53
2023-01-23T03:02:51.931Z,100554.91
2023-01-23T03:03:23.959Z,100555.37
2023-01-23T03:03:56.560Z,100551.50
2023-01-23T03:04:28.805Z,100550.84
2023-01-23T03:05:00.862Z,100555.22
2023-01-23T03:05:32.970Z,100558.63
2023-01-23T03:06:05.967Z,100561.22
2023-01-23T03:06:37.983Z,100552.44
2023-01-23T03:07:10.044Z,100556.50
2023-01-23T03:07:43.043Z,100554.09
2023-01-23T03:08:15.274Z,100549.25
2023-01-23T03:08:47.913Z,100544.69
2023-01-23T03:09:20.044Z,100548.25
2023-01-23T03:09:52.247Z,100543.72
2023-01-23T03:10:24.164Z,100548.59
2023-01-23T03:10:56.053Z,100543.72
2023-01-23T03:11:27.921Z,100545.66
2023-01-23T03:12:01.243Z,100543.06
2023-01-23T03:12:33.181Z,100540.47
2023-01-23T03:13:07.434Z,100535.44
2023-01-23T03:13:39.384Z,100541.75
2023-01-23T03:14:14.825Z,100539.81
2023-01-23T03:14:48.536Z,100539.16
2023-01-23T03:15:20.705Z,100539.16
2023-01-23T03:15:59.190Z,100537.22
2023-01-23T03:16:31.437Z,100539.47
2023-01-23T03:17:03.409Z,100534.28
2023-01-23T03:17:36.463Z,100535.44
2023-01-23T03:18:08.810Z,100534.03
2023-01-23T03:18:53.389Z,100534.81
2023-01-23T03:19:27.098Z,100544.69
2023-01-23T03:19:59.081Z,100533.34
2023-01-23T03:20:39.008Z,100529.44
2023-01-23T03:21:12.312Z,100532.37
2023-01-23T03:21:46.285Z,100529.78
2023-01-23T03:22:18.223Z,100534.16
2023-01-23T03:22:50.557Z,100533.19
2023-01-23T03:23:22.552Z,100534.97
2023-01-23T03:23:54.461Z,100530.09
2023-01-23T03:24:27.600Z,100535.63
2023-01-23T03:24:59.700Z,100533.50
2023-01-23T03:25:31.912Z,100531.25
2023-01-23T03:26:03.877Z,100530.78
2023-01-23T03:26:41.731Z,100538.22
2023-01-23T03:27:13.783Z,100524.78
2023-01-23T03:27:46.047Z,100529.78
2023-01-23T03:28:36.491Z,100534.97
2023-01-23T03:29:32.656Z,100531.56
2023-01-23T03:30:13.865Z,100532.03
2023-01-23T03:30:46.158Z,100527.03
2023-01-23T03:31:19.253Z,100531.91
2023-01-23T03:31:51.270Z,100523.31
2023-01-23T03:32:25.761Z,100519.09
2023-01-23T03:32:57.752Z,100522.97
2023-01-23T03:33:30.376Z,100520.53
2023-01-23T03:34:02.295Z,100526.53
2023-01-23T03:34:35.393Z,100521.81
2023-01-23T03:35:20.325Z,100523.44
2023-01-23T03:35:52.926Z,100520.06
2023-01-23T03:36:24.847Z,100519.41
2023-01-23T03:36:57.190Z,100520.69
2023-01-23T03:37:30.232Z,100519.38
2023-01-23T03:38:02.214Z,100519.72
2023-01-23T03:38:34.118Z,100529.91
2023-01-23T03:39:28.244Z,100521.47
2023-01-23T03:40:19.401Z,100520.06
2023-01-23T03:41:10.535Z,100527.50
2023-01-23T03:41:45.832Z,100525.25
2023-01-23T03:42:18.080Z,100522.97
2023-01-23T03:42:50.717Z,100526.19
2023-01-23T03:43:31.612Z,100523.78
2023-01-23T03:44:03.870Z,100525.88
2023-01-23T03:44:36.480Z,100517.47
2023-01-23T03:45:08.987Z,100522.66
2023-01-23T03:45:40.994Z,100530.09
2023-01-23T03:46:13.162Z,100521.97
2023-01-23T03:46:47.123Z,100519.34
2023-01-23T03:47:20.660Z,100522.25
2023-01-23T03:47:52.589Z,100514.03
2023-01-23T03:48:26.546Z,100523.44
2023-01-23T03:48:59.024Z,100523.12
2023-01-23T03:49:31.149Z,100520.34
2023-01-23T03:50:03.872Z,100520.06
2023-01-23T03:50:36.781Z,100527.50
2023-01-23T03:51:08.668Z,100529.44
2023-01-23T03:51:40.664Z,100521.34
2023-01-23T03:52:12.886Z,100524.91
2023-01-23T03:52:44.884Z,100519.88
2023-01-23T03:53:16.754Z,100523.47
2023-01-23T03:53:48.719Z,100522.66
2023-01-23T03:54:20.620Z,100534.63
2023-01-23T03:54:52.572Z,100530.75
2023-01-23T03:55:24.473Z,100526.84
2023-01-23T03:55:58.164Z,100530.09
2023-01-23T03:56:30.379Z,100530.09
2023-01-23T03:57:02.428Z,100529.44
2023-01-23T03:57:35.095Z,100523.47
2023-01-23T03:58:07.454Z,100527.53
2023-01-23T03:58:39.506Z,100521.00
2023-01-23T03:59:11.417Z,100526.38
2023-01-23T03:59:43.690Z,100529.78
2023-01-23T04:00:18.095Z,100524.28
2023-01-23T04:00:50.979Z,100531.56
2023-01-23T04:01:23.316Z,100530.78
2023-01-23T04:01:58.087Z,100535.94
2023-01-23T04:02:30.032Z,100533.03
2023-01-23T04:03:02.026Z,100536.91
2023-01-23T04:03:34.137Z,100535.44
2023-01-23T04:04:06.389Z,100530.78
2023-01-23T04:04:38.887Z,100530.59
2023-01-23T04:05:11.707Z,100529.16
2023-01-23T04:05:43.720Z,100526.72
2023-01-23T04:06:15.931Z,100534.03
2023-01-23T04:06:48.531Z,100530.78
2023-01-23T04:07:21.367Z,100535.63
2023-01-23T04:07:53.949Z,100531.09
2023-01-23T04:08:25.928Z,100519.72
2023-01-23T04:08:58.376Z,100520.38
2023-01-23T04:09:30.588Z,100520.72
2023-01-23T04:10:02.617Z,100521.06
2023-01-23T04:10:34.526Z,100517.31
2023-01-23T04:11:09.837Z,100520.41
2023-01-23T04:11:42.107Z,100519.91
2023-01-23T04:12:15.008Z,100521.38
2023-01-23T04:12:47.579Z,100514.06
2023-01-23T04:13:19.515Z,100517.63
2023-01-23T04:13:51.447Z,100520.88
2023-01-23T04:14:24.573Z,100519.25
2023-01-23T04:14:56.708Z,100519.91
2023-01-23T04:15:28.591Z,100513.28
2023-01-23T04:16:01.815Z,100520.41
2023-01-23T04:16:33.829Z,100530.78
2023-01-23T04:17:07.696Z,100518.28
2023-01-23T04:17:42.218Z,100521.66
2023-01-23T04:18:14.431Z,100529.78
2023-01-23T04:18:46.308Z,100530.78
2023-01-23T04:19:19.829Z,100528.00
2023-01-23T04:19:51.935Z,100522.00
2023-01-23T04:20:23.887Z,100527.38
2023-01-23T04:20:56.642Z,100531.13
2023-01-23T04:21:28.637Z,100525.09
2023-01-23T04:22:00.955Z,100528.53
2023-01-23T04:22:35.397Z,100516.84
2023-01-23T04:23:07.368Z,100523.78
2023-01-23T04:23:39.288Z,100526.56
2023-01-23T04:24:11.210Z,100520.88
2023-01-23T04:24:43.054Z,100522.84
2023-01-23T04:25:15.003Z,100526.38
2023-01-23T04:25:47.181Z,100517.81
2023-01-23T04:26:19.132Z,100521.72
2023-01-23T04:26:51.156Z,100529.19
2023-01-23T04:27:23.623Z,100525.31
2023-01-23T04:27:55.975Z,100529.19
2023-01-23T04:28:27.948Z,100521.75
2023-01-23T04:29:00.321Z,100524.31
2023-01-23T04:29:33.294Z,100529.16
2023-01-23T04:30:07.491Z,100523.66
2023-01-23T04:30:40.328Z,100529.81
2023-01-23T04:31:13.747Z,100531.63
2023-01-23T04:31:46.550Z,100534.69
2023-01-23T04:32:18.683Z,100527.69
2023-01-23T04:32:50.832Z,100532.22
2023-01-23T04:33:23.509Z,100527.69
2023-01-23T04:33:55.545Z,100531.91
2023-01-23T04:34:27.735Z,100529.81
2023-01-23T04:34:59.743Z,100524.44
2023-01-23T04:35:31.806Z,100532.41
2023-01-23T04:36:06.088Z,100532.09
2023-01-23T04:36:39.189Z,100535.81
2023-01-23T04:37:11.152Z,100540.50
2023-01-23T04:37:44.318Z,100536.09
2023-01-23T04:38:16.580Z,100541.16
2023-01-23T04:38:48.797Z,100548.91
2023-01-23T04:39:22.519Z,100540.66
2023-01-23T04:39:54.717Z,100536.66
2023-01-23T04:40:27.115Z,100544.28
2023-01-23T04:41:00.263Z,100549.94
2023-01-23T04:41:41.437Z,100551.72
2023-01-23T04:42:13.710Z,100551.56
2023-01-23T04:42:48.941Z,100545.06
2023-01-23T04:43:21.954Z,100548.59
2023-01-23T04:43:54.502Z,100542.94
2023-01-23T04:44:27.425Z,100548.78
2023-01-23T04:45:03.992Z,100549.56
2023-01-23T04:45:38.554Z,100547.59
2023-01-23T04:46:14.995Z,100552.19
2023-01-23T04:46:51.094Z,100550.94
2023-01-23T04:47:23.174Z,100547.12
2023-01-23T04:47:55.349Z,100552.97
2023-01-23T04:48:27.458Z,100557.06
2023-01-23T04:48:59.616Z,100553.31
2023-01-23T04:49:31.659Z,100556.69
2023-01-23T04:50:04.735Z,100555.09
2023-01-23T04:50:37.343Z,100556.84
2023-01-23T04:51:10.274Z,100557.97
2023-01-23T04:51:44.543Z,100554.44
2023-01-23T04:52:16.840Z,100561.09
2023-01-23T04:52:50.805Z,100560.94
2023-01-23T04:53:23.189Z,100548.13
2023-01-23T04:53:56.884Z,100560.94
2023-01-23T04:54:29.177Z,100556.09
2023-01-23T04:55:02.393Z,100557.06
2023-01-23T04:55:34.737Z,100557.06
2023-01-23T04:56:08.387Z,100557.34
2023-01-23T04:56:41.294Z,100562.03
2023-01-23T04:57:13.822Z,100561.41
2023-01-23T04:57:46.088Z,100560.91
2023-01-23T04:58:19.452Z,100564.00
2023-01-23T04:58:53.371Z,100570.00
2023-01-23T04:59:25.548Z,100571.31
2023-01-23T05:00:00.157Z,100575.66
2023-01-23T05:00:33.121Z,100568.06
2023-01-23T05:01:06.635Z,100574.84
2023-01-23T05:01:38.727Z,100580.84
2023-01-23T05:02:11.344Z,100580.69
2023-01-23T05:02:46.895Z,100577.81
2023-01-23T05:03:18.856Z,100583.28
2023-01-23T05:03:52.474Z,100583.28
2023-01-23T05:04:24.772Z,100579.91
2023-01-23T05:04:56.646Z,100582.16
2023-01-23T05:05:29.116Z,100584.91
2023-01-23T05:06:01.301Z,100585.69
2023-01-23T05:06:33.423Z,100577.44
2023-01-23T05:07:05.508Z,100579.37
2023-01-23T05:07:38.992Z,100584.03
2023-01-23T05:08:12.153Z,100579.69
2023-01-23T05:08:45.615Z,100587.59
2023-01-23T05:09:17.866Z,100578.69
2023-01-23T05:09:50.173Z,100586.16
2023-01-23T05:10:22.337Z,100595.88
2023-01-23T05:10:54.962Z,100591.00
2023-01-23T05:11:27.206Z,100589.41
2023-01-23T05:11:59.672Z,100589.09
2023-01-23T05:12:32.692Z,100587.50
2023-01-23T05:13:05.506Z,100588.47
2023-01-23T05:13:37.574Z,100587.81
2023-01-23T05:14:09.710Z,100590.69
2023-01-23T05:14:42.099Z,100592.31
2023-01-23T05:15:14.106Z,100586.97
2023-01-23T05:15:46.250Z,100587.47
2023-01-23T05:16:18.735Z,100586.00
2023-01-23T05:16:53.839Z,100589.56
2023-01-23T05:17:30.834Z,100582.22
2023-01-23T05:18:02.968Z,100576.25
2023-01-23T05:18:35.095Z,100580.31
2023-01-23T05:19:07.042Z,100580.03
2023-01-23T05:19:39.302Z,100580.03
2023-01-23T05:20:11.944Z,100582.63
2023-01-23T05:20:44.216Z,100581.09
2023-01-23T05:21:16.103Z,100579.63
2023-01-23T05:21:48.752Z,100578.28
2023-01-23T05:22:21.097Z,100580.22
2023-01-23T05:22:53.280Z,100574.69
2023-01-23T05:23:25.438Z,100579.16
2023-01-23T05:23:59.151Z,100574.97
2023-01-23T05:24:31.105Z,100577.88
2023-01-23T05:25:03.299Z,100572.97
2023-01-23T05:25:35.341Z,100581.69
2023-01-23T05:26:07.202Z,100583.63
2023-01-23T05:26:39.274Z,100577.19
2023-01-23T05:27:12.994Z,100582.28
2023-01-23T05:27:45.980Z,100586.97
2023-01-23T05:28:17.875Z,100582.91
2023-01-23T05:28:49.994Z,100579.66
2023-01-23T05:29:21.925Z,100586.75
2023-01-23T05:29:54.128Z,100587.44
2023-01-23T05:30:26.485Z,100590.66
2023-01-23T05:30:59.306Z,100592.25
2023-01-23T05:31:33.046Z,100591.12
2023-01-23T05:32:07.270Z,100587.38
2023-01-23T05:32:49.850Z,100588.41
2023-01-23T05:33:21.989Z,100586.94
2023-01-23T05:33:54.195Z,100587.06
2023-01-23T05:34:26.255Z,100584.62
2023-01-23T05:34:58.238Z,100589.81
2023-01-23T05:35:30.413Z,100591.59
2023-01-23T05:36:02.779Z,100589.66
2023-01-23T05:36:34.705Z,100591.66
2023-01-23T05:37:06.600Z,100594.25
2023-01-23T05:37:38.657Z,100597.34
2023-01-23T05:38:12.762Z,100596.84
2023-01-23T05:38:44.841Z,100590.91
2023-01-23T05:39:16.934Z,100596.53
2023-01-23T05:39:48.904Z,100591.19
2023-01-23T05:40:21.971Z,100590.38
2023-01-23T05:40:56.031Z,100593.63
2023-01-23T05:41:28.439Z,100595.75
2023-01-23T05:42:01.473Z,100587.19
2023-01-23T05:42:35.028Z,100587.88
2023-01-23T05:43:07.213Z,100593.41
2023-01-23T05:43:41.055Z,100592.94
2023-01-23T05:44:15.110Z,100588.97
2023-01-23T05:44:47.257Z,100593.22
2023-01-23T05:45:20.115Z,100586.56
2023-01-23T05:45:52.313Z,100583.47
2023-01-23T05:46:25.581Z,100589.19
2023-01-23T05:46:58.237Z,100587.59
2023-01-23T05:47:31.114Z,100594.38
2023-01-23T05:48:03.391Z,100588.72
2023-01-23T05:48:36.110Z,100589.37
2023-01-23T05:49:12.911Z,100594.25
2023-01-23T05:49:45.947Z,100588.41
2023-01-23T05:50:20.121Z,100590.84
2023-01-23T05:50:52.534Z,100596.84
2023-01-23T05:51:31.508Z,100599.75
2023-01-23T05:52:03.732Z,100595.88
2023-01-23T05:52:37.031Z,100600.13
2023-01-23T05:53:09.184Z,100599.13
2023-01-23T05:53:41.312Z,100596.25
2023-01-23T05:54:13.517Z,100601.59
2023-01-23T05:54:45.932Z,100603.91
2023-01-23T05:55:18.258Z,100605.38
2023-01-23T05:55:50.927Z,100609.38
2023-01-23T05:56:23.942Z,100609.87
2023-01-23T05:56:58.979Z,100611.88
2023-01-23T05:57:40.618Z,100606.69
2023-01-23T05:58:16.323Z,100616.91
2023-01-23T05:58:49.001Z,100611.88
2023-01-23T05:59:21.719Z,100614.47
2023-01-23T05:59:54.388Z,100608.62
2023-01-23T06:00:28.134Z,100602.16
2023-01-23T06:01:03.659Z,100605.88
2023-01-23T06:01:37.687Z,100611.88
2023-01-23T06:02:12.321Z,100611.88
2023-01-23T06:02:47.526Z,100610.91
2023-01-23T06:03:21.023Z,100610.91
2023-01-23T06:03:53.286Z,100610.25
2023-01-23T06:04:28.180Z,100614.66
2023-01-23T06:05:04.108Z,100617.06
2023-01-23T06:05:37.264Z,100608.16
2023-01-23T06:06:10.190Z,100616.59
2023-01-23T06:06:43.303Z,100610.91
2023-01-23T06:07:17.307Z,100614.16
2023-01-23T06:07:50.191Z,100607.66
2023-01-23T06:08:22.156Z,100613.37
2023-01-23T06:08:54.640Z,100614.16
2023-01-23T06:09:26.577Z,100611.25
2023-01-23T06:09:58.936Z,100606.72
2023-01-23T06:10:30.936Z,100606.06
2023-01-23T06:11:03.022Z,100613.84
2023-01-23T06:11:35.353Z,100617.44
2023-01-23T06:12:08.026Z,100609.63
2023-01-23T06:12:39.971Z,100619.69
2023-01-23T06:13:11.992Z,100612.91
2023-01-23T06:13:43.965Z,100617.44
2023-01-23T06:14:16.268Z,100620.50
2023-01-23T06:14:48.617Z,100613.84
2023-01-23T06:15:20.537Z,100609.97
2023-01-23T06:15:52.650Z,100614.03
2023-01-23T06:16:24.592Z,100618.41
2023-01-23T06:16:56.988Z,100614.84
2023-01-23T06:17:28.964Z,100616.78
2023-01-23T06:18:00.954Z,100612.25
2023-01-23T06:18:33.000Z,100607.84
2023-01-23T06:19:05.166Z,100618.22
2023-01-23T06:19:37.827Z,100617.91
2023-01-23T06:20:11.118Z,100624.22
2023-01-23T06:20:43.222Z,100618.41
2023-01-23T06:21:18.237Z,100621.16
2023-01-23T06:21:50.177Z,100611.44
2023-01-23T06:22:23.716Z,100620.69
2023-01-23T06:22:57.180Z,100622.94
2023-01-23T06:23:29.126Z,100622.28
2023-01-23T06:24:03.354Z,100616.28
2023-01-23T06:24:37.511Z,100623.41
2023-01-23T06:25:10.249Z,100621.97
2023-01-23T06:25:42.805Z,100618.09